sensor_id;sensor_type;location;lat;lon;timestamp;P1;durP1;ratioP1;P2;durP2;ratioP2
76194;SDS011;64964;48.694;21.206;2023-04-06T00:00:25;6.82;;;4.10;;
76194;SDS011;64964;48.694;21.206;2023-04-06T00:02:51;8.52;;;3.78;;
76194;SDS011;64964;48.694;21.206;2023-04-06T00:05:17;6.55;;;3.55;;
76194;SDS011;64964;48.694;21.206;2023-04-06T00:07:43;7.00;;;3.50;;
76194;SDS011;64964;48.694;21.206;2023-04-06T00:10:08;6.95;;;3.63;;
76194;SDS011;64964;48.694;21.206;2023-04-06T00:12:34;5.67;;;3.47;;
76194;SDS011;64964;48.694;21.206;2023-04-06T00:15:00;7.47;;;3.55;;
76194;SDS011;64964;48.694;21.206;2023-04-06T00:17:26;5.03;;;3.20;;
76194;SDS011;64964;48.694;21.206;2023-04-06T00:19:52;6.43;;;3.53;;
76194;SDS011;64964;48.694;21.206;2023-04-06T00:22:18;6.10;;;3.40;;
76194;SDS011;64964;48.694;21.206;2023-04-06T00:24:43;7.17;;;3.70;;
76194;SDS011;64964;48.694;21.206;2023-04-06T00:27:09;7.40;;;3.60;;
76194;SDS011;64964;48.694;21.206;2023-04-06T00:29:34;7.23;;;3.80;;
76194;SDS011;64964;48.694;21.206;2023-04-06T00:32:00;6.90;;;3.40;;
76194;SDS011;64964;48.694;21.206;2023-04-06T00:34:25;7.13;;;3.60;;
76194;SDS011;64964;48.694;21.206;2023-04-06T00:36:51;6.43;;;3.37;;
76194;SDS011;64964;48.694;21.206;2023-04-06T00:39:16;6.57;;;3.50;;
76194;SDS011;64964;48.694;21.206;2023-04-06T00:41:44;7.15;;;3.00;;
76194;SDS011;64964;48.694;21.206;2023-04-06T00:44:13;7.17;;;3.70;;
76194;SDS011;64964;48.694;21.206;2023-04-06T00:46:39;5.40;;;3.17;;
76194;SDS011;64964;48.694;21.206;2023-04-06T00:49:05;10.73;;;3.70;;
76194;SDS011;64964;48.694;21.206;2023-04-06T00:51:30;6.73;;;3.37;;
76194;SDS011;64964;48.694;21.206;2023-04-06T00:53:55;6.65;;;3.70;;
76194;SDS011;64964;48.694;21.206;2023-04-06T00:56:21;6.47;;;3.57;;
76194;SDS011;64964;48.694;21.206;2023-04-06T00:58:48;6.45;;;3.65;;
76194;SDS011;64964;48.694;21.206;2023-04-06T01:01:14;8.87;;;3.70;;
76194;SDS011;64964;48.694;21.206;2023-04-06T01:03:40;7.20;;;3.40;;
76194;SDS011;64964;48.694;21.206;2023-04-06T01:06:07;6.00;;;3.50;;
76194;SDS011;64964;48.694;21.206;2023-04-06T01:08:32;6.30;;;3.33;;
76194;SDS011;64964;48.694;21.206;2023-04-06T01:10:59;6.65;;;3.78;;
76194;SDS011;64964;48.694;21.206;2023-04-06T01:13:26;8.63;;;3.83;;
76194;SDS011;64964;48.694;21.206;2023-04-06T01:15:52;6.97;;;3.47;;
76194;SDS011;64964;48.694;21.206;2023-04-06T01:18:17;7.05;;;3.58;;
76194;SDS011;64964;48.694;21.206;2023-04-06T01:20:43;5.93;;;3.53;;
76194;SDS011;64964;48.694;21.206;2023-04-06T01:23:08;5.43;;;3.60;;
76194;SDS011;64964;48.694;21.206;2023-04-06T01:25:34;7.68;;;3.45;;
76194;SDS011;64964;48.694;21.206;2023-04-06T01:27:59;5.33;;;3.43;;
76194;SDS011;64964;48.694;21.206;2023-04-06T01:30:25;5.73;;;3.60;;
76194;SDS011;64964;48.694;21.206;2023-04-06T01:32:50;7.60;;;3.73;;
76194;SDS011;64964;48.694;21.206;2023-04-06T01:35:16;6.57;;;3.40;;
76194;SDS011;64964;48.694;21.206;2023-04-06T01:37:43;7.80;;;3.80;;
76194;SDS011;64964;48.694;21.206;2023-04-06T01:40:08;7.20;;;3.77;;
76194;SDS011;64964;48.694;21.206;2023-04-06T01:42:34;7.97;;;3.65;;
76194;SDS011;64964;48.694;21.206;2023-04-06T01:44:59;8.33;;;4.07;;
76194;SDS011;64964;48.694;21.206;2023-04-06T01:47:25;7.53;;;4.05;;
76194;SDS011;64964;48.694;21.206;2023-04-06T01:49:50;5.83;;;3.50;;
76194;SDS011;64964;48.694;21.206;2023-04-06T01:52:16;8.47;;;3.70;;
76194;SDS011;64964;48.694;21.206;2023-04-06T01:54:41;8.93;;;4.03;;
76194;SDS011;64964;48.694;21.206;2023-04-06T01:57:06;6.95;;;3.88;;
76194;SDS011;64964;48.694;21.206;2023-04-06T01:59:32;7.03;;;3.30;;
76194;SDS011;64964;48.694;21.206;2023-04-06T02:01:57;6.77;;;3.50;;
76194;SDS011;64964;48.694;21.206;2023-04-06T02:04:22;7.30;;;3.93;;
76194;SDS011;64964;48.694;21.206;2023-04-06T02:06:48;7.00;;;3.80;;
76194;SDS011;64964;48.694;21.206;2023-04-06T02:09:13;6.75;;;3.55;;
76194;SDS011;64964;48.694;21.206;2023-04-06T02:11:39;8.37;;;3.50;;
76194;SDS011;64964;48.694;21.206;2023-04-06T02:14:05;8.55;;;3.97;;
76194;SDS011;64964;48.694;21.206;2023-04-06T02:16:30;6.03;;;3.40;;
76194;SDS011;64964;48.694;21.206;2023-04-06T02:18:56;7.00;;;3.70;;
76194;SDS011;64964;48.694;21.206;2023-04-06T02:21:21;7.00;;;3.60;;
76194;SDS011;64964;48.694;21.206;2023-04-06T02:23:47;9.83;;;4.23;;
76194;SDS011;64964;48.694;21.206;2023-04-06T02:26:12;7.50;;;3.97;;
76194;SDS011;64964;48.694;21.206;2023-04-06T02:28:38;6.63;;;3.78;;
76194;SDS011;64964;48.694;21.206;2023-04-06T02:31:03;8.40;;;3.80;;
76194;SDS011;64964;48.694;21.206;2023-04-06T02:33:29;8.47;;;4.13;;
76194;SDS011;64964;48.694;21.206;2023-04-06T02:35:54;8.35;;;4.00;;
76194;SDS011;64964;48.694;21.206;2023-04-06T02:38:20;7.53;;;3.77;;
76194;SDS011;64964;48.694;21.206;2023-04-06T02:40:45;5.23;;;3.40;;
76194;SDS011;64964;48.694;21.206;2023-04-06T02:43:11;6.87;;;3.90;;
76194;SDS011;64964;48.694;21.206;2023-04-06T02:45:36;7.78;;;3.45;;
76194;SDS011;64964;48.694;21.206;2023-04-06T02:48:01;7.90;;;3.97;;
76194;SDS011;64964;48.694;21.206;2023-04-06T02:50:27;8.67;;;3.90;;
76194;SDS011;64964;48.694;21.206;2023-04-06T02:52:52;7.93;;;3.73;;
76194;SDS011;64964;48.694;21.206;2023-04-06T02:55:18;7.72;;;3.92;;
76194;SDS011;64964;48.694;21.206;2023-04-06T02:57:44;7.82;;;3.92;;
76194;SDS011;64964;48.694;21.206;2023-04-06T03:00:10;9.97;;;4.17;;
76194;SDS011;64964;48.694;21.206;2023-04-06T03:02:36;9.75;;;4.35;;
76194;SDS011;64964;48.694;21.206;2023-04-06T03:05:02;8.53;;;3.97;;
76194;SDS011;64964;48.694;21.206;2023-04-06T03:07:28;8.20;;;4.05;;
76194;SDS011;64964;48.694;21.206;2023-04-06T03:09:54;7.78;;;4.20;;
76194;SDS011;64964;48.694;21.206;2023-04-06T03:12:20;6.83;;;3.90;;
76194;SDS011;64964;48.694;21.206;2023-04-06T03:14:45;8.00;;;3.93;;
76194;SDS011;64964;48.694;21.206;2023-04-06T03:17:11;7.05;;;3.80;;
76194;SDS011;64964;48.694;21.206;2023-04-06T03:19:36;8.47;;;3.70;;
76194;SDS011;64964;48.694;21.206;2023-04-06T03:22:01;7.20;;;4.17;;
76194;SDS011;64964;48.694;21.206;2023-04-06T03:24:27;8.63;;;3.73;;
76194;SDS011;64964;48.694;21.206;2023-04-06T03:26:52;7.78;;;3.60;;
76194;SDS011;64964;48.694;21.206;2023-04-06T03:29:18;7.33;;;3.50;;
76194;SDS011;64964;48.694;21.206;2023-04-06T03:31:43;6.40;;;3.57;;
76194;SDS011;64964;48.694;21.206;2023-04-06T03:34:09;4.55;;;3.17;;
76194;SDS011;64964;48.694;21.206;2023-04-06T03:36:35;7.07;;;3.67;;
76194;SDS011;64964;48.694;21.206;2023-04-06T03:39:00;6.80;;;4.00;;
76194;SDS011;64964;48.694;21.206;2023-04-06T03:41:26;7.80;;;3.90;;
76194;SDS011;64964;48.694;21.206;2023-04-06T03:43:52;7.73;;;3.77;;
76194;SDS011;64964;48.694;21.206;2023-04-06T03:46:17;6.35;;;3.55;;
76194;SDS011;64964;48.694;21.206;2023-04-06T03:48:43;5.47;;;3.40;;
76194;SDS011;64964;48.694;21.206;2023-04-06T03:51:08;6.77;;;3.90;;
76194;SDS011;64964;48.694;21.206;2023-04-06T03:53:33;6.38;;;3.42;;
76194;SDS011;64964;48.694;21.206;2023-04-06T03:55:59;6.07;;;3.80;;
76194;SDS011;64964;48.694;21.206;2023-04-06T03:58:24;6.67;;;3.07;;
76194;SDS011;64964;48.694;21.206;2023-04-06T04:00:50;6.68;;;3.63;;
76194;SDS011;64964;48.694;21.206;2023-04-06T04:03:15;8.43;;;3.83;;
76194;SDS011;64964;48.694;21.206;2023-04-06T04:05:40;6.23;;;3.77;;
76194;SDS011;64964;48.694;21.206;2023-04-06T04:08:08;7.03;;;3.90;;
76194;SDS011;64964;48.694;21.206;2023-04-06T04:10:33;7.38;;;3.85;;
76194;SDS011;64964;48.694;21.206;2023-04-06T04:12:58;6.37;;;3.50;;
76194;SDS011;64964;48.694;21.206;2023-04-06T04:15:24;7.80;;;3.93;;
76194;SDS011;64964;48.694;21.206;2023-04-06T04:17:49;8.10;;;3.83;;
76194;SDS011;64964;48.694;21.206;2023-04-06T04:20:16;8.30;;;4.03;;
76194;SDS011;64964;48.694;21.206;2023-04-06T04:22:42;6.63;;;3.92;;
76194;SDS011;64964;48.694;21.206;2023-04-06T04:25:08;7.77;;;4.30;;
76194;SDS011;64964;48.694;21.206;2023-04-06T04:27:34;6.95;;;4.03;;
76194;SDS011;64964;48.694;21.206;2023-04-06T04:29:59;9.23;;;4.23;;
76194;SDS011;64964;48.694;21.206;2023-04-06T04:32:25;7.25;;;4.10;;
76194;SDS011;64964;48.694;21.206;2023-04-06T04:34:52;8.43;;;4.00;;
76194;SDS011;64964;48.694;21.206;2023-04-06T04:37:18;7.75;;;4.25;;
76194;SDS011;64964;48.694;21.206;2023-04-06T04:39:44;7.07;;;4.37;;
76194;SDS011;64964;48.694;21.206;2023-04-06T04:42:10;10.55;;;4.53;;
76194;SDS011;64964;48.694;21.206;2023-04-06T04:44:36;7.97;;;3.97;;
76194;SDS011;64964;48.694;21.206;2023-04-06T04:47:01;9.17;;;4.03;;
76194;SDS011;64964;48.694;21.206;2023-04-06T04:49:26;9.10;;;4.17;;
76194;SDS011;64964;48.694;21.206;2023-04-06T04:51:52;6.37;;;4.17;;
76194;SDS011;64964;48.694;21.206;2023-04-06T04:54:17;6.32;;;3.60;;
76194;SDS011;64964;48.694;21.206;2023-04-06T04:56:44;8.47;;;4.33;;
76194;SDS011;64964;48.694;21.206;2023-04-06T04:59:09;5.85;;;4.03;;
76194;SDS011;64964;48.694;21.206;2023-04-06T05:01:35;7.07;;;4.37;;
76194;SDS011;64964;48.694;21.206;2023-04-06T05:04:00;9.63;;;4.25;;
76194;SDS011;64964;48.694;21.206;2023-04-06T05:06:26;10.87;;;4.57;;
76194;SDS011;64964;48.694;21.206;2023-04-06T05:08:51;8.57;;;4.40;;
76194;SDS011;64964;48.694;21.206;2023-04-06T05:11:17;6.40;;;4.57;;
76194;SDS011;64964;48.694;21.206;2023-04-06T05:13:42;8.30;;;4.47;;
76194;SDS011;64964;48.694;21.206;2023-04-06T05:16:08;8.63;;;4.57;;
76194;SDS011;64964;48.694;21.206;2023-04-06T05:18:33;8.90;;;4.60;;
76194;SDS011;64964;48.694;21.206;2023-04-06T05:20:59;9.00;;;4.68;;
76194;SDS011;64964;48.694;21.206;2023-04-06T05:23:25;10.50;;;4.87;;
76194;SDS011;64964;48.694;21.206;2023-04-06T05:25:50;10.55;;;4.90;;
76194;SDS011;64964;48.694;21.206;2023-04-06T05:28:16;8.50;;;4.20;;
76194;SDS011;64964;48.694;21.206;2023-04-06T05:30:42;8.85;;;5.07;;
76194;SDS011;64964;48.694;21.206;2023-04-06T05:33:09;10.73;;;5.07;;
76194;SDS011;64964;48.694;21.206;2023-04-06T05:35:35;8.45;;;4.40;;
76194;SDS011;64964;48.694;21.206;2023-04-06T05:38:01;8.47;;;4.70;;
76194;SDS011;64964;48.694;21.206;2023-04-06T05:40:26;9.77;;;4.75;;
76194;SDS011;64964;48.694;21.206;2023-04-06T05:42:52;13.00;;;5.13;;
76194;SDS011;64964;48.694;21.206;2023-04-06T05:45:17;10.50;;;5.40;;
76194;SDS011;64964;48.694;21.206;2023-04-06T05:47:43;9.90;;;5.50;;
76194;SDS011;64964;48.694;21.206;2023-04-06T05:50:13;9.88;;;4.70;;
76194;SDS011;64964;48.694;21.206;2023-04-06T05:52:40;8.97;;;4.87;;
76194;SDS011;64964;48.694;21.206;2023-04-06T05:55:08;10.98;;;5.18;;
76194;SDS011;64964;48.694;21.206;2023-04-06T05:57:34;10.60;;;6.18;;
76194;SDS011;64964;48.694;21.206;2023-04-06T06:00:00;9.57;;;5.27;;
76194;SDS011;64964;48.694;21.206;2023-04-06T06:02:25;11.23;;;5.70;;
76194;SDS011;64964;48.694;21.206;2023-04-06T06:04:51;10.53;;;5.50;;
76194;SDS011;64964;48.694;21.206;2023-04-06T06:07:16;10.93;;;5.83;;
76194;SDS011;64964;48.694;21.206;2023-04-06T06:09:42;14.48;;;6.30;;
76194;SDS011;64964;48.694;21.206;2023-04-06T06:12:08;13.60;;;6.57;;
76194;SDS011;64964;48.694;21.206;2023-04-06T06:14:33;10.95;;;5.43;;
76194;SDS011;64964;48.694;21.206;2023-04-06T06:16:59;10.97;;;5.93;;
76194;SDS011;64964;48.694;21.206;2023-04-06T06:19:24;9.82;;;5.70;;
76194;SDS011;64964;48.694;21.206;2023-04-06T06:21:50;13.40;;;6.70;;
76194;SDS011;64964;48.694;21.206;2023-04-06T06:24:15;12.10;;;6.40;;
76194;SDS011;64964;48.694;21.206;2023-04-06T06:26:41;10.23;;;6.03;;
76194;SDS011;64964;48.694;21.206;2023-04-06T06:29:06;11.85;;;6.15;;
76194;SDS011;64964;48.694;21.206;2023-04-06T06:31:32;12.70;;;6.90;;
76194;SDS011;64964;48.694;21.206;2023-04-06T06:33:57;11.85;;;5.90;;
76194;SDS011;64964;48.694;21.206;2023-04-06T06:36:23;12.03;;;6.20;;
76194;SDS011;64964;48.694;21.206;2023-04-06T06:38:48;15.23;;;7.20;;
76194;SDS011;64964;48.694;21.206;2023-04-06T06:41:14;11.53;;;6.33;;
76194;SDS011;64964;48.694;21.206;2023-04-06T06:43:40;12.17;;;7.03;;
76194;SDS011;64964;48.694;21.206;2023-04-06T06:46:05;12.48;;;6.93;;
76194;SDS011;64964;48.694;21.206;2023-04-06T06:48:31;13.03;;;6.93;;
76194;SDS011;64964;48.694;21.206;2023-04-06T06:50:57;8.03;;;4.60;;
76194;SDS011;64964;48.694;21.206;2023-04-06T06:53:22;11.23;;;6.72;;
76194;SDS011;64964;48.694;21.206;2023-04-06T06:55:48;13.60;;;6.67;;
76194;SDS011;64964;48.694;21.206;2023-04-06T06:58:14;12.43;;;6.43;;
76194;SDS011;64964;48.694;21.206;2023-04-06T07:00:40;13.50;;;6.80;;
76194;SDS011;64964;48.694;21.206;2023-04-06T07:03:06;11.68;;;6.75;;
76194;SDS011;64964;48.694;21.206;2023-04-06T07:05:31;11.30;;;6.47;;
76194;SDS011;64964;48.694;21.206;2023-04-06T07:07:57;9.38;;;5.68;;
76194;SDS011;64964;48.694;21.206;2023-04-06T07:10:22;12.77;;;6.83;;
76194;SDS011;64964;48.694;21.206;2023-04-06T07:12:48;13.13;;;7.33;;
76194;SDS011;64964;48.694;21.206;2023-04-06T07:15:13;12.80;;;7.17;;
76194;SDS011;64964;48.694;21.206;2023-04-06T07:17:39;11.33;;;6.67;;
76194;SDS011;64964;48.694;21.206;2023-04-06T07:20:06;13.48;;;6.63;;
76194;SDS011;64964;48.694;21.206;2023-04-06T07:22:32;12.87;;;7.00;;
76194;SDS011;64964;48.694;21.206;2023-04-06T07:24:57;12.73;;;6.68;;
76194;SDS011;64964;48.694;21.206;2023-04-06T07:27:22;10.37;;;5.80;;
76194;SDS011;64964;48.694;21.206;2023-04-06T07:29:48;10.57;;;6.20;;
76194;SDS011;64964;48.694;21.206;2023-04-06T07:32:13;9.47;;;4.97;;
76194;SDS011;64964;48.694;21.206;2023-04-06T07:34:39;11.07;;;5.70;;
76194;SDS011;64964;48.694;21.206;2023-04-06T07:37:04;12.00;;;5.80;;
76194;SDS011;64964;48.694;21.206;2023-04-06T07:39:30;8.50;;;5.00;;
76194;SDS011;64964;48.694;21.206;2023-04-06T07:41:55;10.70;;;6.00;;
76194;SDS011;64964;48.694;21.206;2023-04-06T07:44:21;11.53;;;5.40;;
76194;SDS011;64964;48.694;21.206;2023-04-06T07:46:46;9.60;;;5.40;;
76194;SDS011;64964;48.694;21.206;2023-04-06T07:49:11;10.33;;;5.70;;
76194;SDS011;64964;48.694;21.206;2023-04-06T07:51:37;9.63;;;5.70;;
76194;SDS011;64964;48.694;21.206;2023-04-06T07:54:03;9.80;;;4.90;;
76194;SDS011;64964;48.694;21.206;2023-04-06T07:56:29;12.63;;;5.30;;
76194;SDS011;64964;48.694;21.206;2023-04-06T07:58:54;8.53;;;4.93;;
76194;SDS011;64964;48.694;21.206;2023-04-06T08:01:22;9.88;;;5.32;;
76194;SDS011;64964;48.694;21.206;2023-04-06T08:03:47;10.90;;;5.50;;
76194;SDS011;64964;48.694;21.206;2023-04-06T08:06:13;9.38;;;5.45;;
76194;SDS011;64964;48.694;21.206;2023-04-06T08:08:38;12.20;;;5.57;;
76194;SDS011;64964;48.694;21.206;2023-04-06T08:11:03;10.13;;;5.73;;
76194;SDS011;64964;48.694;21.206;2023-04-06T08:13:29;10.60;;;5.37;;
76194;SDS011;64964;48.694;21.206;2023-04-06T08:15:55;9.82;;;5.28;;
76194;SDS011;64964;48.694;21.206;2023-04-06T08:18:21;11.77;;;5.38;;
76194;SDS011;64964;48.694;21.206;2023-04-06T08:20:47;9.90;;;5.30;;
76194;SDS011;64964;48.694;21.206;2023-04-06T08:23:13;10.45;;;5.82;;
76194;SDS011;64964;48.694;21.206;2023-04-06T08:25:39;10.57;;;5.37;;
76194;SDS011;64964;48.694;21.206;2023-04-06T08:28:04;10.55;;;5.90;;
76194;SDS011;64964;48.694;21.206;2023-04-06T08:30:30;9.70;;;5.13;;
76194;SDS011;64964;48.694;21.206;2023-04-06T08:32:55;11.53;;;5.40;;
76194;SDS011;64964;48.694;21.206;2023-04-06T08:35:21;11.02;;;5.28;;
76194;SDS011;64964;48.694;21.206;2023-04-06T08:37:46;10.93;;;5.03;;
76194;SDS011;64964;48.694;21.206;2023-04-06T08:40:12;9.90;;;5.43;;
76194;SDS011;64964;48.694;21.206;2023-04-06T08:42:42;9.13;;;4.90;;
76194;SDS011;64964;48.694;21.206;2023-04-06T08:45:14;8.95;;;5.15;;
76194;SDS011;64964;48.694;21.206;2023-04-06T08:47:41;8.85;;;4.85;;
76194;SDS011;64964;48.694;21.206;2023-04-06T08:50:07;7.90;;;4.63;;
76194;SDS011;64964;48.694;21.206;2023-04-06T08:52:33;8.52;;;4.82;;
76194;SDS011;64964;48.694;21.206;2023-04-06T08:54:59;10.47;;;5.00;;
76194;SDS011;64964;48.694;21.206;2023-04-06T08:57:25;10.00;;;4.45;;
76194;SDS011;64964;48.694;21.206;2023-04-06T08:59:52;8.45;;;4.45;;
76194;SDS011;64964;48.694;21.206;2023-04-06T09:02:19;7.95;;;4.70;;
76194;SDS011;64964;48.694;21.206;2023-04-06T09:04:48;10.45;;;5.18;;
76194;SDS011;64964;48.694;21.206;2023-04-06T09:07:15;8.47;;;4.50;;
76194;SDS011;64964;48.694;21.206;2023-04-06T09:09:41;9.18;;;5.03;;
76194;SDS011;64964;48.694;21.206;2023-04-06T09:12:21;12.90;;;5.05;;
76194;SDS011;64964;48.694;21.206;2023-04-06T09:14:54;7.90;;;4.85;;
76194;SDS011;64964;48.694;21.206;2023-04-06T09:17:21;7.80;;;5.00;;
76194;SDS011;64964;48.694;21.206;2023-04-06T09:19:48;9.07;;;4.87;;
76194;SDS011;64964;48.694;21.206;2023-04-06T09:22:14;7.90;;;4.90;;
76194;SDS011;64964;48.694;21.206;2023-04-06T09:24:43;10.05;;;5.25;;
76194;SDS011;64964;48.694;21.206;2023-04-06T09:27:11;9.70;;;4.57;;
76194;SDS011;64964;48.694;21.206;2023-04-06T09:29:38;7.75;;;4.15;;
76194;SDS011;64964;48.694;21.206;2023-04-06T09:32:04;9.55;;;4.35;;
76194;SDS011;64964;48.694;21.206;2023-04-06T09:34:36;7.87;;;4.70;;
76194;SDS011;64964;48.694;21.206;2023-04-06T09:37:15;6.65;;;4.45;;
76194;SDS011;64964;48.694;21.206;2023-04-06T09:39:41;8.27;;;4.90;;
76194;SDS011;64964;48.694;21.206;2023-04-06T09:42:07;7.97;;;4.47;;
76194;SDS011;64964;48.694;21.206;2023-04-06T09:44:33;6.32;;;4.18;;
76194;SDS011;64964;48.694;21.206;2023-04-06T09:46:58;9.40;;;4.40;;
76194;SDS011;64964;48.694;21.206;2023-04-06T09:49:24;8.37;;;4.67;;
76194;SDS011;64964;48.694;21.206;2023-04-06T09:51:53;7.47;;;5.00;;
76194;SDS011;64964;48.694;21.206;2023-04-06T09:54:22;8.25;;;4.47;;
76194;SDS011;64964;48.694;21.206;2023-04-06T09:57:03;9.05;;;4.60;;
76194;SDS011;64964;48.694;21.206;2023-04-06T10:01:54;7.47;;;4.37;;
76194;SDS011;64964;48.694;21.206;2023-04-06T10:04:43;6.90;;;4.15;;
76194;SDS011;64964;48.694;21.206;2023-04-06T10:07:12;7.83;;;4.80;;
76194;SDS011;64964;48.694;21.206;2023-04-06T10:09:38;7.32;;;4.32;;
76194;SDS011;64964;48.694;21.206;2023-04-06T10:12:04;8.70;;;4.80;;
76194;SDS011;64964;48.694;21.206;2023-04-06T10:14:33;7.63;;;4.47;;
76194;SDS011;64964;48.694;21.206;2023-04-06T10:17:03;6.82;;;4.03;;
76194;SDS011;64964;48.694;21.206;2023-04-06T10:19:52;7.35;;;4.35;;
76194;SDS011;64964;48.694;21.206;2023-04-06T10:25:15;7.40;;;4.27;;
76194;SDS011;64964;48.694;21.206;2023-04-06T10:27:41;9.65;;;4.60;;
76194;SDS011;64964;48.694;21.206;2023-04-06T10:30:06;7.47;;;4.30;;
76194;SDS011;64964;48.694;21.206;2023-04-06T10:32:33;11.02;;;4.40;;
76194;SDS011;64964;48.694;21.206;2023-04-06T10:35:05;7.50;;;4.37;;
76194;SDS011;64964;48.694;21.206;2023-04-06T10:40:35;8.13;;;4.82;;
76194;SDS011;64964;48.694;21.206;2023-04-06T10:43:12;6.97;;;4.55;;
76194;SDS011;64964;48.694;21.206;2023-04-06T10:45:38;6.97;;;4.75;;
76194;SDS011;64964;48.694;21.206;2023-04-06T10:48:14;8.43;;;4.40;;
76194;SDS011;64964;48.694;21.206;2023-04-06T10:50:43;7.40;;;4.30;;
76194;SDS011;64964;48.694;21.206;2023-04-06T10:53:10;7.65;;;4.40;;
76194;SDS011;64964;48.694;21.206;2023-04-06T10:55:35;7.50;;;4.45;;
76194;SDS011;64964;48.694;21.206;2023-04-06T10:58:06;9.60;;;4.60;;
76194;SDS011;64964;48.694;21.206;2023-04-06T11:00:32;6.97;;;4.30;;
76194;SDS011;64964;48.694;21.206;2023-04-06T11:03:00;8.30;;;4.37;;
76194;SDS011;64964;48.694;21.206;2023-04-06T11:05:26;7.18;;;4.82;;
76194;SDS011;64964;48.694;21.206;2023-04-06T11:07:52;8.07;;;4.47;;
76194;SDS011;64964;48.694;21.206;2023-04-06T11:10:21;6.83;;;4.50;;
76194;SDS011;64964;48.694;21.206;2023-04-06T11:12:52;8.00;;;4.72;;
76194;SDS011;64964;48.694;21.206;2023-04-06T11:15:20;7.35;;;4.57;;
76194;SDS011;64964;48.694;21.206;2023-04-06T11:17:46;7.37;;;4.43;;
76194;SDS011;64964;48.694;21.206;2023-04-06T11:20:11;7.83;;;4.27;;
76194;SDS011;64964;48.694;21.206;2023-04-06T11:22:53;7.18;;;4.72;;
76194;SDS011;64964;48.694;21.206;2023-04-06T11:25:18;7.65;;;4.32;;
76194;SDS011;64964;48.694;21.206;2023-04-06T11:27:44;8.83;;;4.63;;
76194;SDS011;64964;48.694;21.206;2023-04-06T11:30:11;7.05;;;3.85;;
76194;SDS011;64964;48.694;21.206;2023-04-06T11:32:41;7.18;;;4.60;;
76194;SDS011;64964;48.694;21.206;2023-04-06T11:35:12;6.82;;;4.30;;
76194;SDS011;64964;48.694;21.206;2023-04-06T11:37:44;7.40;;;4.63;;
76194;SDS011;64964;48.694;21.206;2023-04-06T11:40:10;7.73;;;4.30;;
76194;SDS011;64964;48.694;21.206;2023-04-06T11:42:36;6.43;;;3.58;;
76194;SDS011;64964;48.694;21.206;2023-04-06T11:45:01;7.00;;;3.83;;
76194;SDS011;64964;48.694;21.206;2023-04-06T11:47:28;7.17;;;4.13;;
76194;SDS011;64964;48.694;21.206;2023-04-06T11:49:55;8.18;;;4.57;;
76194;SDS011;64964;48.694;21.206;2023-04-06T11:52:24;8.45;;;4.80;;
76194;SDS011;64964;48.694;21.206;2023-04-06T11:54:52;6.97;;;4.22;;
76194;SDS011;64964;48.694;21.206;2023-04-06T11:57:19;10.65;;;4.43;;
76194;SDS011;64964;48.694;21.206;2023-04-06T11:59:46;6.40;;;3.97;;
76194;SDS011;64964;48.694;21.206;2023-04-06T12:02:11;7.72;;;4.70;;
76194;SDS011;64964;48.694;21.206;2023-04-06T12:04:37;7.43;;;4.40;;
76194;SDS011;64964;48.694;21.206;2023-04-06T12:07:02;5.63;;;3.47;;
76194;SDS011;64964;48.694;21.206;2023-04-06T12:09:29;7.78;;;4.10;;
76194;SDS011;64964;48.694;21.206;2023-04-06T12:11:54;8.63;;;4.55;;
76194;SDS011;64964;48.694;21.206;2023-04-06T12:14:21;7.60;;;4.35;;
76194;SDS011;64964;48.694;21.206;2023-04-06T12:16:46;7.10;;;3.80;;
76194;SDS011;64964;48.694;21.206;2023-04-06T12:19:11;6.77;;;4.33;;
76194;SDS011;64964;48.694;21.206;2023-04-06T12:21:37;7.27;;;4.23;;
76194;SDS011;64964;48.694;21.206;2023-04-06T12:24:03;9.63;;;4.38;;
76194;SDS011;64964;48.694;21.206;2023-04-06T12:26:29;8.90;;;4.60;;
76194;SDS011;64964;48.694;21.206;2023-04-06T12:28:55;7.28;;;4.63;;
76194;SDS011;64964;48.694;21.206;2023-04-06T12:31:21;7.63;;;4.60;;
76194;SDS011;64964;48.694;21.206;2023-04-06T12:33:48;6.68;;;4.35;;
76194;SDS011;64964;48.694;21.206;2023-04-06T12:36:15;7.67;;;4.80;;
76194;SDS011;64964;48.694;21.206;2023-04-06T12:38:44;7.72;;;4.80;;
76194;SDS011;64964;48.694;21.206;2023-04-06T12:41:11;10.63;;;5.32;;
76194;SDS011;64964;48.694;21.206;2023-04-06T12:43:36;7.03;;;4.43;;
76194;SDS011;64964;48.694;21.206;2023-04-06T12:46:02;7.60;;;4.90;;
76194;SDS011;64964;48.694;21.206;2023-04-06T12:48:27;9.97;;;4.50;;
76194;SDS011;64964;48.694;21.206;2023-04-06T12:50:57;7.88;;;4.60;;
76194;SDS011;64964;48.694;21.206;2023-04-06T12:53:23;8.83;;;5.17;;
76194;SDS011;64964;48.694;21.206;2023-04-06T12:55:49;8.48;;;4.80;;
76194;SDS011;64964;48.694;21.206;2023-04-06T12:58:15;10.20;;;4.93;;
76194;SDS011;64964;48.694;21.206;2023-04-06T13:00:41;7.40;;;4.45;;
76194;SDS011;64964;48.694;21.206;2023-04-06T13:03:07;8.40;;;5.28;;
76194;SDS011;64964;48.694;21.206;2023-04-06T13:05:32;8.07;;;4.63;;
76194;SDS011;64964;48.694;21.206;2023-04-06T13:07:57;7.20;;;4.60;;
76194;SDS011;64964;48.694;21.206;2023-04-06T13:10:23;9.33;;;4.67;;
76194;SDS011;64964;48.694;21.206;2023-04-06T13:12:48;11.00;;;4.67;;
76194;SDS011;64964;48.694;21.206;2023-04-06T13:15:14;7.50;;;4.70;;
76194;SDS011;64964;48.694;21.206;2023-04-06T13:17:40;7.43;;;4.27;;
76194;SDS011;64964;48.694;21.206;2023-04-06T13:20:05;8.77;;;4.90;;
76194;SDS011;64964;48.694;21.206;2023-04-06T13:22:31;7.13;;;4.10;;
76194;SDS011;64964;48.694;21.206;2023-04-06T13:24:57;8.77;;;4.93;;
76194;SDS011;64964;48.694;21.206;2023-04-06T13:27:22;9.17;;;4.80;;
76194;SDS011;64964;48.694;21.206;2023-04-06T13:29:47;8.37;;;4.67;;
76194;SDS011;64964;48.694;21.206;2023-04-06T13:32:13;7.30;;;4.80;;
76194;SDS011;64964;48.694;21.206;2023-04-06T13:34:39;6.68;;;4.15;;
76194;SDS011;64964;48.694;21.206;2023-04-06T13:37:05;8.50;;;4.63;;
76194;SDS011;64964;48.694;21.206;2023-04-06T13:39:31;10.13;;;5.00;;
76194;SDS011;64964;48.694;21.206;2023-04-06T13:41:57;8.93;;;4.82;;
76194;SDS011;64964;48.694;21.206;2023-04-06T13:44:22;6.43;;;4.40;;
76194;SDS011;64964;48.694;21.206;2023-04-06T13:46:47;7.00;;;3.80;;
76194;SDS011;64964;48.694;21.206;2023-04-06T13:49:13;9.00;;;4.90;;
76194;SDS011;64964;48.694;21.206;2023-04-06T13:51:40;9.05;;;4.70;;
76194;SDS011;64964;48.694;21.206;2023-04-06T13:54:06;5.30;;;2.87;;
76194;SDS011;64964;48.694;21.206;2023-04-06T13:56:31;7.50;;;4.53;;
76194;SDS011;64964;48.694;21.206;2023-04-06T13:58:57;7.53;;;4.87;;
76194;SDS011;64964;48.694;21.206;2023-04-06T14:01:22;8.53;;;4.53;;
76194;SDS011;64964;48.694;21.206;2023-04-06T14:03:48;8.87;;;5.00;;
76194;SDS011;64964;48.694;21.206;2023-04-06T14:06:14;8.85;;;4.85;;
76194;SDS011;64964;48.694;21.206;2023-04-06T14:08:39;8.07;;;4.55;;
76194;SDS011;64964;48.694;21.206;2023-04-06T14:11:06;7.23;;;4.70;;
76194;SDS011;64964;48.694;21.206;2023-04-06T14:13:33;9.40;;;4.60;;
76194;SDS011;64964;48.694;21.206;2023-04-06T14:15:59;7.75;;;4.72;;
76194;SDS011;64964;48.694;21.206;2023-04-06T14:18:24;7.60;;;4.60;;
76194;SDS011;64964;48.694;21.206;2023-04-06T14:20:56;8.90;;;5.10;;
76194;SDS011;64964;48.694;21.206;2023-04-06T14:23:22;7.07;;;4.05;;
76194;SDS011;64964;48.694;21.206;2023-04-06T14:25:50;7.47;;;4.50;;
76194;SDS011;64964;48.694;21.206;2023-04-06T14:28:16;10.03;;;5.03;;
76194;SDS011;64964;48.694;21.206;2023-04-06T14:30:42;8.27;;;4.75;;
76194;SDS011;64964;48.694;21.206;2023-04-06T14:33:08;7.25;;;4.85;;